^^
Historische Daten
 
Tage Summe für Dezember 16, 2017 Einheit:  Metric    English   Beide
« vorheriger Tag
nächster Tag »
Tage Wochen Monate Jahre Benutzerdefiniert
  Aktuell: Max: Min: Durchschnitt:
Temperatur: 3.3 °C 3.3 °C 2.1 °C 2.5 °C
Tau Punkt: 1.6 °C 1.8 °C 0.8 °C 1.2 °C
Luftfeuchte: 89% 92% 89% 91%
Windgeschwindigkeit: 18.5km/h 25.9km/h 0.0km/h 11.6km/h
Wind Böen: 18.5km/h 25.9km/h - -
WindNW - - WSW
Luftdruck: 1006.7 hPa 1006.7 hPa 1000.9 hPa -
Niederschlag: 0.3 mm      
Historical Graphs
 
 
Tabellendaten für Dezember 16, 2017
Zeit Temperatur Tau Punkt Luftdruck Wind Windgeschwindigkeit Wind Böen Luftfeuchte Regen Rate (Stunde) Conditions
00:02 2.4 °C 1.2 °C 1000.9 hPa SSW 5.6 km/h 5.6 km/h 92% 0.0 mm -RA
00:03 2.4 °C 1.2 °C 1000.9 hPa SSW 5.6 km/h 5.6 km/h 92% 0.0 mm -RA
00:07 2.4 °C 1.2 °C 1000.9 hPa SSW 5.6 km/h 5.6 km/h 92% 0.0 mm -RA
00:09 2.3 °C 1.2 °C 1001.2 hPa SSW 5.6 km/h 5.6 km/h 92% 0.0 mm -RA
00:10 2.3 °C 1.2 °C 1001.2 hPa SSW 3.7 km/h 3.7 km/h 92% 0.0 mm -RA
00:15 2.3 °C 1.2 °C 1001.2 hPa SSW 3.7 km/h 3.7 km/h 92% 0.0 mm -RA
00:17 2.3 °C 1.2 °C 1001.2 hPa SSW 3.7 km/h 3.7 km/h 92% 0.0 mm -RA
00:20 2.4 °C 1.2 °C 1001.2 hPa SSW 1.9 km/h 1.9 km/h 92% 0.0 mm -RA
00:25 2.4 °C 1.2 °C 1001.2 hPa SSW 5.6 km/h 5.6 km/h 92% 0.0 mm -RA
00:26 2.3 °C 1.2 °C 1001.2 hPa SSW 5.6 km/h 5.6 km/h 92% 0.0 mm -RA
00:31 2.3 °C 1.2 °C 1001.2 hPa SSW 1.9 km/h 1.9 km/h 92% 0.0 mm -RA
00:35 2.3 °C 1.2 °C 1001.2 hPa SSW 3.7 km/h 3.7 km/h 92% 0.0 mm -RA
00:37 2.3 °C 1.2 °C 1001.2 hPa SSW 3.7 km/h 3.7 km/h 92% 0.0 mm -RA
00:41 2.3 °C 1.2 °C 1001.2 hPa Calm     92% 0.0 mm -RA
00:43 2.3 °C 1.2 °C 1001.2 hPa SSW 5.6 km/h 5.6 km/h 92% 0.0 mm -RA
00:46 2.3 °C 1.2 °C 1001.2 hPa SSW 1.6 km/h 1.6 km/h 92% 0.0 mm -RA
00:50 2.3 °C 1.2 °C 1001.2 hPa SSW 3.7 km/h   92% 0.0 mm -RA
00:55 2.3 °C 1.2 °C 1001.2 hPa SSW 5.6 km/h 5.6 km/h 92% 0.0 mm -RA
00:56 2.3 °C 1.2 °C 1001.2 hPa SSW 7.4 km/h 7.4 km/h 92% 0.0 mm -RA
00:59 2.3 °C 1.2 °C 1001.2 hPa SW 5.6 km/h 5.6 km/h 92% 0.0 mm -RA
01:02 2.3 °C 1.1 °C 1001.2 hPa SW 5.6 km/h 5.6 km/h 92% 0.0 mm -RA
01:05 2.3 °C 0.9 °C 1001.2 hPa SW 5.6 km/h 5.6 km/h 91% 0.0 mm -RA
01:07 2.3 °C 1.2 °C 1001.2 hPa SW 5.6 km/h 5.6 km/h 92% 0.0 mm -RA
01:12 2.3 °C 0.9 °C 1001.2 hPa SW 5.6 km/h 5.6 km/h 91% 0.0 mm -RA
01:13 2.3 °C 1.0 °C 1001.2 hPa SW 6.4 km/h 6.4 km/h 91% 0.0 mm -RA
01:18 2.3 °C 0.9 °C 1001.6 hPa SW 3.7 km/h 3.7 km/h 91% 0.0 mm -RA
01:19 2.3 °C 0.9 °C 1001.2 hPa SW 6.4 km/h 6.4 km/h 91% 0.0 mm -RA
01:20 2.3 °C 1.0 °C 1001.2 hPa SW 5.6 km/h 5.6 km/h 91% 0.0 mm -RA
01:24 2.3 °C 0.9 °C 1001.6 hPa SW 3.7 km/h 3.7 km/h 91% 0.0 mm -RA
01:29 2.3 °C 1.0 °C 1001.6 hPa SW 5.6 km/h 5.6 km/h 91% 0.0 mm -RA
01:31 2.3 °C 0.9 °C 1001.6 hPa SW 5.6 km/h 5.6 km/h 91% 0.0 mm -RA
01:36 2.3 °C 1.0 °C 1001.2 hPa SW 8.0 km/h 8.0 km/h 91% 0.0 mm -RA
01:39 2.3 °C 1.0 °C 1001.6 hPa SW 6.4 km/h 6.4 km/h 91% 0.0 mm -RA
01:44 2.3 °C 1.0 °C 1001.6 hPa SW 8.0 km/h 8.0 km/h 91% 0.0 mm -RA
01:46 2.3 °C 1.0 °C 1001.6 hPa SW 7.4 km/h 7.4 km/h 91% 0.0 mm -RA
01:49 2.3 °C 1.0 °C 1001.6 hPa SW 5.6 km/h 5.6 km/h 91% 0.0 mm -RA
01:51 2.3 °C 1.0 °C 1001.6 hPa SW 6.4 km/h 6.4 km/h 91% 0.0 mm -RA
01:56 2.3 °C 1.0 °C 1001.6 hPa SW 6.4 km/h 6.4 km/h 91% 0.0 mm -RA
02:00 2.3 °C 1.0 °C 1001.6 hPa SW 7.4 km/h 7.4 km/h 91% 0.0 mm -RA
02:03 2.3 °C 1.0 °C 1001.6 hPa SW 5.6 km/h 5.6 km/h 91% 0.0 mm -RA
02:08 2.3 °C 1.0 °C 1001.6 hPa SW 1.9 km/h 1.9 km/h 91% 0.0 mm -RA
02:13 2.3 °C 1.0 °C 1001.6 hPa SW 5.6 km/h 5.6 km/h 91% 0.0 mm -RA
02:18 2.3 °C 0.9 °C 1001.9 hPa SW 5.6 km/h 5.6 km/h 91% 0.0 mm -RA
02:19 2.3 °C 1.0 °C 1001.9 hPa SW 3.7 km/h 3.7 km/h 91% 0.0 mm -RA
02:24 2.3 °C 0.9 °C 1001.9 hPa SW 5.6 km/h 5.6 km/h 91% 0.0 mm -RA
02:26 2.3 °C 0.9 °C 1001.9 hPa SW 3.2 km/h 3.2 km/h 91% 0.0 mm -RA
02:31 2.3 °C 0.9 °C 1001.9 hPa SW 7.4 km/h 7.4 km/h 91% 0.0 mm -RA
02:32 2.3 °C 0.9 °C 1001.9 hPa SSW 7.4 km/h 7.4 km/h 91% 0.0 mm -RA
02:35 2.3 °C 0.9 °C 1001.9 hPa SSW 5.6 km/h 5.6 km/h 91% 0.0 mm -RA
02:37 2.3 °C 0.9 °C 1001.9 hPa SSW 5.6 km/h 5.6 km/h 91% 0.0 mm -RA
02:42 2.2 °C 0.9 °C 1002.3 hPa SSW 5.6 km/h 5.6 km/h 91% 0.0 mm -RA
02:43 2.2 °C 0.9 °C 1002.3 hPa SSW 3.7 km/h 3.7 km/h 91% 0.0 mm -RA
02:48 2.2 °C 0.9 °C 1002.3 hPa SW 5.6 km/h 5.6 km/h 91% 0.0 mm -RA
02:50 2.2 °C 0.9 °C 1002.3 hPa SW 5.6 km/h 5.6 km/h 91% 0.0 mm -RA
02:53 2.2 °C 0.9 °C 1002.3 hPa SW 1.6 km/h 1.6 km/h 91% 0.0 mm -RA
02:57 2.2 °C 0.8 °C 1002.3 hPa SW 5.6 km/h 5.6 km/h 91% 0.0 mm -RA
03:00 2.2 °C 0.8 °C 1002.3 hPa SW 8.0 km/h 8.0 km/h 91% 0.0 mm -RA
03:02 2.2 °C 0.8 °C 1002.3 hPa SW 9.7 km/h 9.7 km/h 91% 0.0 mm -RA
03:06 2.2 °C 0.8 °C 1002.3 hPa WSW 13.0 km/h 13.0 km/h 91% 0.0 mm -RA
03:10 2.2 °C 0.8 °C 1002.3 hPa SW 11.1 km/h 11.1 km/h 91% 0.0 mm -RA
03:13 2.2 °C 0.8 °C 1002.3 hPa SW 7.4 km/h 7.4 km/h 91% 0.0 mm -RA
03:17 2.1 °C 0.8 °C 1002.3 hPa WSW 7.4 km/h 7.4 km/h 91% 0.0 mm -RA
03:19 2.1 °C 0.8 °C 1002.3 hPa WSW 7.4 km/h 7.4 km/h 91% 0.0 mm -RA
03:24 2.1 °C 0.8 °C 1002.3 hPa WSW 7.4 km/h 7.4 km/h 91% 0.0 mm -RA
03:29 2.1 °C 0.8 °C 1002.3 hPa WSW 11.1 km/h 11.1 km/h 91% 0.0 mm -RA
03:30 2.1 °C 0.8 °C 1002.3 hPa WSW 11.1 km/h 11.1 km/h 91% 0.0 mm -RA
03:35 2.1 °C 0.8 °C 1002.3 hPa WSW 7.4 km/h 7.4 km/h 91% 0.0 mm -RA
03:36 2.1 °C 0.8 °C 1002.3 hPa WSW 7.4 km/h 7.4 km/h 91% 0.0 mm -RA
03:40 2.1 °C 0.8 °C 1002.3 hPa WSW 6.4 km/h 6.4 km/h 91% 0.0 mm -RA
03:41 2.1 °C 0.8 °C 1002.3 hPa WSW 13.0 km/h 13.0 km/h 91% 0.0 mm -RA
03:46 2.1 °C 0.8 °C 1002.3 hPa WSW 8.0 km/h 8.0 km/h 91% 0.0 mm -RA
03:47 2.1 °C 0.8 °C 1002.3 hPa WSW 7.4 km/h 8.5 km/h 91% 0.0 mm -RA
03:49 2.1 °C 0.8 °C 1002.3 hPa WSW 7.4 km/h 7.4 km/h 91% 0.0 mm -RA
03:53 2.1 °C 0.8 °C 1002.3 hPa WSW 13.0 km/h 13.0 km/h 91% 0.0 mm -RA
03:58 2.1 °C 0.8 °C 1002.3 hPa SW 13.0 km/h 13.0 km/h 91% 0.0 mm -RA
03:59 2.1 °C 0.8 °C 1002.3 hPa WSW 9.7 km/h 9.7 km/h 91% 0.0 mm -RA
04:04 2.2 °C 0.8 °C 1002.3 hPa WSW 7.4 km/h 7.4 km/h 91% 0.0 mm -RA
04:06 2.2 °C 0.8 °C 1002.3 hPa WSW 7.4 km/h 7.4 km/h 91% 0.0 mm -RA
04:11 2.2 °C 0.8 °C 1002.3 hPa WSW 7.4 km/h 7.4 km/h 91% 0.0 mm -RA
04:16 2.2 °C 0.8 °C 1002.3 hPa WSW 5.6 km/h 5.6 km/h 91% 0.0 mm -RA
04:17 2.2 °C 0.8 °C 1002.3 hPa WSW 5.6 km/h 5.6 km/h 91% 0.0 mm -RA
04:18 2.2 °C 0.8 °C 1002.3 hPa WSW 14.8 km/h 14.8 km/h 91% 0.0 mm -RA
04:23 2.2 °C 0.8 °C 1002.3 hPa WSW 13.0 km/h 13.0 km/h 91% 0.0 mm -RA
04:24 2.2 °C 0.8 °C 1002.3 hPa WSW 13.0 km/h 13.0 km/h 91% 0.0 mm -RA
04:29 2.2 °C 0.8 °C 1002.6 hPa West 11.1 km/h 11.1 km/h 91% 0.0 mm -RA
04:31 2.2 °C 0.8 °C 1002.6 hPa West 9.3 km/h 9.3 km/h 91% 0.0 mm -RA
04:36 2.2 °C 0.8 °C 1002.6 hPa WSW 13.0 km/h 13.0 km/h 91% 0.0 mm -RA
04:38 2.2 °C 0.9 °C 1002.6 hPa WNW 14.8 km/h 14.8 km/h 91% 0.0 mm -RA
04:39 2.2 °C 0.9 °C 1002.6 hPa WNW 13.0 km/h 13.0 km/h 91% 0.0 mm -RA
04:43 2.2 °C 1.1 °C 1002.6 hPa WNW 12.9 km/h 12.9 km/h 92% 0.0 mm -RA
04:46 2.3 °C 1.1 °C 1002.6 hPa WSW 17.7 km/h 17.7 km/h 92% 0.0 mm -RA
04:48 2.3 °C 1.1 °C 1002.6 hPa WNW 11.3 km/h 11.3 km/h 92% 0.0 mm -RA
04:53 2.3 °C 1.1 °C 1002.6 hPa West 11.1 km/h 11.1 km/h 92% 0.0 mm -RA
04:55 2.3 °C 1.1 °C 1002.6 hPa West 5.6 km/h 5.6 km/h 92% 0.0 mm -RA
05:01 2.3 °C 1.2 °C 1002.6 hPa West 9.3 km/h 9.3 km/h 92% 0.0 mm -RA
05:06 2.3 °C 1.2 °C 1002.9 hPa WNW 4.8 km/h 4.8 km/h 92% 0.0 mm -RA
05:07 2.3 °C 1.2 °C 1002.9 hPa WNW 9.3 km/h 9.3 km/h 92% 0.0 mm -RA
05:12 2.3 °C 1.2 °C 1002.9 hPa WNW 11.1 km/h 11.1 km/h 92% 0.0 mm -RA
05:14 2.4 °C 1.2 °C 1002.9 hPa West 11.3 km/h 11.3 km/h 92% 0.0 mm -RA
05:16 2.4 °C 1.2 °C 1002.9 hPa West 11.3 km/h 11.3 km/h 92% 0.0 mm -RA
05:21 2.4 °C 1.2 °C 1002.9 hPa WSW 12.9 km/h 12.9 km/h 92% 0.0 mm -RA
05:26 2.4 °C 1.2 °C 1002.9 hPa WSW 6.4 km/h 6.4 km/h 92% 0.0 mm -RA
05:27 2.4 °C 1.2 °C 1002.9 hPa WSW 11.3 km/h 11.3 km/h 92% 0.0 mm -RA
05:32 2.3 °C 1.2 °C 1002.9 hPa West 5.6 km/h 5.6 km/h 92% 0.0 mm -RA
05:33 2.3 °C 1.2 °C 1002.9 hPa West 11.1 km/h 11.1 km/h 92% 0.0 mm -RA
05:37 2.3 °C 1.2 °C 1002.9 hPa West 3.7 km/h 3.7 km/h 92% 0.0 mm -RA
05:41 2.3 °C 1.1 °C 1002.9 hPa WSW 5.6 km/h 5.6 km/h 92% 0.0 mm -RA
05:46 2.3 °C 1.1 °C 1002.9 hPa West 5.6 km/h 5.6 km/h 92% 0.0 mm -RA
05:50 2.3 °C 1.1 °C 1002.9 hPa WSW 5.6 km/h 5.6 km/h 92% 0.0 mm -RA
05:54 2.2 °C 1.1 °C 1002.9 hPa SW 11.1 km/h 11.1 km/h 92% 0.0 mm -RA
05:59 2.2 °C 1.1 °C 1002.9 hPa SW 5.6 km/h 5.6 km/h 92% 0.0 mm -RA
06:00 2.2 °C 1.1 °C 1002.9 hPa WSW 11.3 km/h 11.3 km/h 92% 0.0 mm -RA
06:02 2.2 °C 1.0 °C 1002.9 hPa WSW 7.4 km/h 7.4 km/h 92% 0.0 mm -RA
06:07 2.2 °C 1.0 °C 1002.9 hPa WSW 7.4 km/h 7.4 km/h 92% 0.0 mm -RA
06:12 2.2 °C 1.0 °C 1002.9 hPa WSW 14.8 km/h 14.8 km/h 92% 0.0 mm -RA
06:15 2.2 °C 1.0 °C 1002.9 hPa WSW 13.0 km/h 13.0 km/h 92% 0.0 mm -RA
06:19 2.2 °C 1.0 °C 1002.9 hPa West 11.1 km/h 11.1 km/h 92% 0.0 mm -RA
06:24 2.2 °C 1.0 °C 1002.9 hPa WSW 13.0 km/h 13.0 km/h 92% 0.0 mm -RA
06:29 2.2 °C 1.0 °C 1002.9 hPa WSW 6.4 km/h 6.4 km/h 92% 0.0 mm -RA
06:31 2.2 °C 1.0 °C 1002.9 hPa WSW 13.0 km/h 13.0 km/h 92% 0.0 mm -RA
06:35 2.2 °C 1.0 °C 1002.9 hPa West 13.0 km/h 13.0 km/h 92% 0.0 mm -RA
06:40 2.2 °C 1.1 °C 1003.3 hPa West 11.1 km/h 11.1 km/h 92% 0.0 mm -RA
06:42 2.2 °C 1.1 °C 1003.3 hPa WSW 14.8 km/h 14.8 km/h 92% 0.0 mm -RA
06:46 2.2 °C 1.1 °C 1003.3 hPa WSW 9.3 km/h 9.3 km/h 92% 0.0 mm -RA
06:48 2.2 °C 1.1 °C 1003.3 hPa WSW 5.6 km/h 5.6 km/h 92% 0.0 mm -RA
06:53 2.2 °C 1.1 °C 1003.3 hPa WSW 14.8 km/h 14.8 km/h 92% 0.0 mm -RA
06:55 2.2 °C 1.1 °C 1003.3 hPa SW 14.8 km/h 14.8 km/h 92% 0.0 mm -RA
06:58 2.2 °C 1.1 °C 1003.3 hPa WSW 11.1 km/h 11.1 km/h 92% 0.0 mm -RA
07:03 2.2 °C 1.1 °C 1003.3 hPa WSW 18.5 km/h 18.5 km/h 92% 0.0 mm -RA
07:04 2.2 °C 1.1 °C 1003.3 hPa WSW 13.0 km/h 13.0 km/h 92% 0.0 mm -RA
07:09 2.2 °C 1.1 °C 1003.3 hPa West 18.5 km/h 18.5 km/h 92% 0.0 mm -RA
07:10 2.2 °C 1.1 °C 1003.3 hPa West 18.5 km/h 18.5 km/h 92% 0.0 mm -RA
07:11 2.2 °C 0.9 °C 1003.3 hPa WSW 9.3 km/h 9.3 km/h 91% 0.0 mm -RA
07:16 2.2 °C 1.1 °C 1003.3 hPa WSW 13.0 km/h 13.0 km/h 92% 0.0 mm -RA
07:21 2.2 °C 0.9 °C 1003.3 hPa West 11.1 km/h 11.1 km/h 91% 0.0 mm -RA
07:26 2.2 °C 0.9 °C 1003.3 hPa WSW 6.4 km/h 6.4 km/h 91% 0.0 mm -RA
07:27 2.2 °C 0.9 °C 1003.3 hPa WNW 6.4 km/h 8.2 km/h 91% 0.0 mm -RA
07:28 2.2 °C 0.9 °C 1003.3 hPa West 9.3 km/h 9.3 km/h 91% 0.0 mm -RA
07:32 2.2 °C 0.9 °C 1003.3 hPa West 6.4 km/h 7.1 km/h 91% 0.0 mm -RA
07:36 2.2 °C 0.9 °C 1003.3 hPa WNW 13.0 km/h 13.0 km/h 91% 0.0 mm -RA
07:37 2.2 °C 0.9 °C 1003.3 hPa WNW 6.4 km/h 6.4 km/h 91% 0.0 mm -RA
07:42 2.2 °C 0.9 °C 1003.6 hPa WSW 20.4 km/h 20.4 km/h 91% 0.0 mm -RA
07:47 2.2 °C 0.9 °C 1003.6 hPa SW 8.0 km/h 8.0 km/h 91% 0.0 mm -RA
07:52 2.2 °C 0.9 °C 1003.6 hPa WSW 11.1 km/h 11.1 km/h 91% 0.0 mm -RA
07:57 2.2 °C 0.9 °C 1003.6 hPa WSW 14.8 km/h 14.8 km/h 91% 0.0 mm -RA
08:01 2.2 °C 0.9 °C 1003.6 hPa West 19.3 km/h 19.3 km/h 91% 0.0 mm -RA
08:06 2.2 °C 0.9 °C 1003.9 hPa West 11.1 km/h 11.1 km/h 91% 0.0 mm -RA
08:11 2.2 °C 0.9 °C 1003.9 hPa WSW 18.5 km/h 18.5 km/h 91% 0.0 mm -RA
08:12 2.2 °C 0.9 °C 1003.9 hPa West 18.5 km/h 18.5 km/h 91% 0.0 mm -RA
08:13 2.2 °C 0.9 °C 1003.9 hPa West 11.1 km/h 11.1 km/h 91% 0.0 mm -RA
08:18 2.2 °C 0.9 °C 1003.9 hPa WSW 16.7 km/h 16.7 km/h 91% 0.0 mm -RA
08:19 2.2 °C 0.9 °C 1003.9 hPa NW 16.7 km/h 16.7 km/h 91% 0.0 mm -RA
08:24 2.2 °C 0.8 °C 1003.9 hPa WSW 14.8 km/h 14.8 km/h 91% 0.0 mm -RA
08:29 2.2 °C 1.1 °C 1004.3 hPa West 12.9 km/h 12.9 km/h 92% 0.0 mm -RA
08:30 2.2 °C 1.1 °C 1004.3 hPa West 11.3 km/h 11.3 km/h 92% 0.0 mm -RA
08:34 2.2 °C 1.1 °C 1004.3 hPa WSW 18.5 km/h 18.5 km/h 92% 0.3 mm -RA
08:37 2.2 °C 1.1 °C 1004.3 hPa WNW 19.3 km/h 19.3 km/h 92% 0.3 mm -RA
08:42 2.3 °C 1.1 °C 1004.3 hPa WNW 16.7 km/h 16.7 km/h 92% 0.3 mm -RA
08:46 2.3 °C 1.1 °C 1004.3 hPa WNW 18.5 km/h 18.5 km/h 92% 0.3 mm -RA
08:47 2.3 °C 1.1 °C 1004.3 hPa West 14.8 km/h 14.8 km/h 92% 0.3 mm -RA
08:52 2.3 °C 1.1 °C 1004.6 hPa WNW 13.0 km/h 13.0 km/h 92% 0.3 mm -RA
08:54 2.3 °C 1.1 °C 1004.6 hPa West 13.0 km/h 13.0 km/h 92% 0.3 mm -RA
08:59 2.3 °C 1.1 °C 1004.6 hPa West 18.5 km/h 18.5 km/h 92% 0.3 mm -RA
09:00 2.3 °C 1.1 °C 1004.6 hPa NW 18.5 km/h 18.5 km/h 92% 0.3 mm -RA
09:05 2.3 °C 1.1 °C 1004.6 hPa NW 13.0 km/h 13.0 km/h 92% 0.3 mm -RA
09:06 2.3 °C 1.1 °C 1004.6 hPa WNW 16.7 km/h 16.7 km/h 92% 0.3 mm -RA
09:08 2.3 °C 1.1 °C 1004.6 hPa West 14.8 km/h 14.8 km/h 92% 0.3 mm -RA
09:11 2.3 °C 1.1 °C 1004.6 hPa WNW 16.7 km/h 16.7 km/h 92% 0.3 mm -RA
09:16 2.3 °C 1.1 °C 1004.6 hPa WNW 13.0 km/h 13.0 km/h 92% 0.3 mm -RA
09:17 2.3 °C 1.1 °C 1004.6 hPa WNW 6.4 km/h 6.4 km/h 92% 0.3 mm -RA
09:22 2.3 °C 1.1 °C 1004.6 hPa NW 13.0 km/h 13.0 km/h 92% 0.3 mm -RA
09:24 2.3 °C 1.1 °C 1005.0 hPa West 6.4 km/h 6.4 km/h 92% 0.3 mm -RA
09:29 2.3 °C 1.1 °C 1005.0 hPa WSW 16.7 km/h 16.7 km/h 92% 0.3 mm -RA
09:30 2.3 °C 1.1 °C 1005.0 hPa West 18.5 km/h 18.5 km/h 92% 0.3 mm -RA
09:31 2.3 °C 1.1 °C 1005.0 hPa WSW 18.5 km/h 18.5 km/h 92% 0.3 mm -RA
09:35 2.3 °C 1.2 °C 1005.0 hPa WSW 11.1 km/h 11.1 km/h 92% 0.0 mm -RA
09:40 2.3 °C 1.2 °C 1005.0 hPa SW 18.5 km/h 18.5 km/h 92% 0.0 mm -RA
09:41 2.4 °C 1.2 °C 1005.0 hPa SW 14.8 km/h 14.8 km/h 92% 0.0 mm -RA
09:46 2.4 °C 1.3 °C 1005.0 hPa WNW 13.0 km/h 13.0 km/h 92% 0.0 mm -RA
09:47 2.4 °C 1.3 °C 1005.0 hPa WNW 9.3 km/h 9.3 km/h 92% 0.0 mm -RA
09:50 2.4 °C 1.3 °C 1005.0 hPa West 9.3 km/h 9.3 km/h 92% 0.0 mm -RA
09:52 2.4 °C 1.3 °C 1005.0 hPa West 11.1 km/h 11.1 km/h 92% 0.0 mm -RA
09:57 2.5 °C 1.3 °C 1005.3 hPa WSW 14.8 km/h 14.8 km/h 92% 0.0 mm -RA
09:59 2.6 °C 1.4 °C 1005.3 hPa WNW 16.7 km/h 16.7 km/h 92% 0.0 mm -RA
10:02 2.6 °C 1.4 °C 1005.3 hPa West 11.3 km/h 11.3 km/h 92% 0.0 mm -RA
10:05 2.6 °C 1.4 °C 1005.3 hPa West 14.8 km/h 14.8 km/h 92% 0.0 mm -RA
10:07 2.6 °C 1.4 °C 1005.3 hPa NNW 16.7 km/h 16.7 km/h 92% 0.0 mm -RA
10:11 2.6 °C 1.4 °C 1005.3 hPa West 18.5 km/h 18.5 km/h 92% 0.0 mm -RA
10:14 2.6 °C 1.4 °C 1005.3 hPa West 14.8 km/h 14.8 km/h 92% 0.0 mm -RA
10:17 2.7 °C 1.5 °C 1005.6 hPa WSW 20.9 km/h 20.9 km/h 92% 0.0 mm -RA
10:22 2.7 °C 1.5 °C 1005.6 hPa WNW 13.0 km/h 13.0 km/h 92% 0.0 mm -RA
10:25 2.7 °C 1.5 °C 1005.6 hPa WSW 17.7 km/h 17.7 km/h 92% 0.0 mm -RA
10:30 2.7 °C 1.5 °C 1005.6 hPa West 18.5 km/h 18.5 km/h 92% 0.0 mm -RA
10:33 2.7 °C 1.5 °C 1005.6 hPa West 14.8 km/h 14.8 km/h 92% 0.0 mm -RA
10:35 2.7 °C 1.5 °C 1005.6 hPa West 11.3 km/h 11.3 km/h 92% 0.0 mm -RA
10:40 2.7 °C 1.6 °C 1005.6 hPa SW 20.4 km/h 20.4 km/h 92% 0.0 mm -RA
10:41 2.7 °C 1.6 °C 1005.6 hPa WNW 16.7 km/h 16.7 km/h 92% 0.0 mm -RA
10:46 2.7 °C 1.6 °C 1005.6 hPa West 16.7 km/h 16.7 km/h 92% 0.0 mm -RA
10:50 2.7 °C 1.6 °C 1005.6 hPa SSW 25.9 km/h 25.9 km/h 92% 0.0 mm -RA
10:55 2.7 °C 1.6 °C 1005.6 hPa NW 18.5 km/h 18.5 km/h 92% 0.0 mm -RA
11:00 2.7 °C 1.6 °C 1005.6 hPa WNW 14.8 km/h 14.8 km/h 92% 0.0 mm -RA
11:01 2.8 °C 1.6 °C 1005.6 hPa West 14.8 km/h 14.8 km/h 92% 0.0 mm -RA
11:06 2.8 °C 1.6 °C 1005.6 hPa West 16.7 km/h 16.7 km/h 92% 0.0 mm -RA
11:11 2.9 °C 1.7 °C 1005.6 hPa WNW 9.3 km/h 9.3 km/h 92% 0.0 mm -RA
11:12 2.9 °C 1.8 °C 1005.6 hPa West 12.9 km/h 12.9 km/h 92% 0.0 mm -RA
11:18 3.0 °C 1.8 °C 1006.0 hPa WSW 11.1 km/h 11.1 km/h 92% 0.0 mm -RA
11:23 3.1 °C 1.7 °C 1006.0 hPa WSW 18.5 km/h 18.5 km/h 91% 0.0 mm -RA
11:24 3.1 °C 1.7 °C 1006.0 hPa WNW 18.5 km/h 18.5 km/h 91% 0.0 mm -RA
11:29 3.1 °C 1.7 °C 1006.0 hPa WSW 20.4 km/h 20.4 km/h 91% 0.0 mm -RA
11:30 3.1 °C 1.7 °C 1006.0 hPa West 11.3 km/h 24.1 km/h 91% 0.0 mm -RA
11:35 3.1 °C 1.7 °C 1006.0 hPa WNW 18.5 km/h 18.5 km/h 91% 0.0 mm -RA
11:37 3.1 °C 1.7 °C 1006.0 hPa WNW 17.7 km/h 17.7 km/h 91% 0.0 mm -RA
11:41 3.1 °C 1.7 °C 1006.3 hPa WNW 13.0 km/h 13.0 km/h 91% 0.0 mm -RA
11:46 3.1 °C 1.7 °C 1006.3 hPa West 14.8 km/h 14.8 km/h 91% 0.0 mm -RA
11:51 3.1 °C 1.7 °C 1006.3 hPa WNW 18.5 km/h 18.5 km/h 91% 0.0 mm -RA
11:53 3.1 °C 1.7 °C 1006.3 hPa West 16.7 km/h 16.7 km/h 91% 0.0 mm -RA
11:58 3.1 °C 1.6 °C 1006.3 hPa WNW 20.4 km/h 20.4 km/h 90% 0.0 mm -RA
12:03 3.1 °C 1.6 °C 1006.3 hPa NW 13.0 km/h 13.0 km/h 90% 0.0 mm -RA
12:04 3.1 °C 1.6 °C 1006.3 hPa NW 13.0 km/h 13.0 km/h 90% 0.0 mm -RA
12:07 3.1 °C 1.6 °C 1006.3 hPa West 20.4 km/h 20.4 km/h 90% 0.0 mm -RA
12:09 3.1 °C 1.6 °C 1006.3 hPa West 9.3 km/h 9.3 km/h 90% 0.0 mm -RA
12:12 3.1 °C 1.6 °C 1006.3 hPa WNW 20.4 km/h 20.4 km/h 90% 0.0 mm -RA
12:14 3.1 °C 1.6 °C 1006.3 hPa West 11.1 km/h 11.1 km/h 90% 0.0 mm -RA
12:18 3.2 °C 1.7 °C 1006.3 hPa NW 20.4 km/h 20.4 km/h 90% 0.0 mm -RA
12:21 3.1 °C 1.6 °C 1006.3 hPa NW 18.5 km/h 18.5 km/h 90% 0.0 mm -RA
12:26 3.1 °C 1.6 °C 1006.3 hPa WSW 18.5 km/h 18.5 km/h 90% 0.0 mm -RA
12:31 3.1 °C 1.6 °C 1006.3 hPa WSW 13.0 km/h 13.0 km/h 90% 0.0 mm -RA
12:36 3.1 °C 1.6 °C 1006.3 hPa WNW 22.2 km/h 22.2 km/h 90% 0.0 mm -RA
12:37 3.1 °C 1.6 °C 1006.7 hPa West 17.7 km/h 17.7 km/h 90% 0.0 mm -RA
12:42 3.1 °C 1.6 °C 1006.7 hPa West 22.2 km/h 22.2 km/h 90% 0.0 mm -RA
12:43 3.1 °C 1.4 °C 1006.7 hPa WNW 22.2 km/h 22.2 km/h 89% 0.0 mm -RA
12:48 3.0 °C 1.5 °C 1006.7 hPa WSW 14.8 km/h 14.8 km/h 90% 0.0 mm -RA
12:54 3.1 °C 1.6 °C 1006.7 hPa WNW 18.5 km/h 18.5 km/h 90% 0.0 mm -RA
12:58 3.1 °C 1.6 °C 1006.7 hPa WNW 11.1 km/h 11.1 km/h 90% 0.0 mm -RA
12:59 3.1 °C 1.6 °C 1006.7 hPa NW 14.5 km/h 14.5 km/h 90% 0.0 mm -RA
13:04 3.1 °C 1.6 °C 1006.7 hPa WNW 22.2 km/h 22.2 km/h 90% 0.0 mm -RA
13:05 3.1 °C 1.6 °C 1006.7 hPa West 16.7 km/h 16.7 km/h 90% 0.0 mm -RA
13:07 3.1 °C 1.6 °C 1006.7 hPa WNW 18.5 km/h 18.5 km/h 90% 0.0 mm -RA
13:11 3.1 °C 1.6 °C 1006.7 hPa WNW 8.0 km/h 8.0 km/h 90% 0.0 mm -RA
13:16 3.2 °C 1.6 °C 1006.7 hPa NNW 22.2 km/h 22.2 km/h 89% 0.0 mm -RA
13:21 3.2 °C 1.6 °C 1006.7 hPa WSW 18.5 km/h 18.5 km/h 89% 0.0 mm -RA
13:23 3.2 °C 1.6 °C 1006.7 hPa WNW 18.5 km/h 18.5 km/h 89% 0.0 mm -RA
13:28 3.2 °C 1.6 °C 1006.7 hPa West 22.2 km/h 22.2 km/h 89% 0.0 mm -RA
13:33 3.2 °C 1.6 °C 1006.7 hPa NW 18.5 km/h 18.5 km/h 89% 0.0 mm -RA
13:34 3.2 °C 1.6 °C 1006.7 hPa WNW 18.5 km/h 18.5 km/h 89% 0.0 mm -RA
13:35 3.2 °C 1.6 °C 1006.7 hPa West 17.7 km/h 17.7 km/h 89% 0.0 mm -RA
13:40 3.3 °C 1.6 °C 1006.7 hPa WNW 18.5 km/h 18.5 km/h 89% 0.0 mm -RA
13:42 3.3 °C 1.6 °C 1006.7 hPa WSW 14.5 km/h 14.5 km/h 89% 0.0 mm -RA
13:43 3.3 °C 1.6 °C 1006.7 hPa West 18.5 km/h 18.5 km/h 89% 0.0 mm -RA
13:48 3.3 °C 1.7 °C 1006.7 hPa West 13.0 km/h 13.0 km/h 89% 0.0 mm -RA
13:49 3.3 °C 1.7 °C 1006.7 hPa WNW 14.8 km/h 14.8 km/h 89% 0.0 mm -RA
13:52 3.3 °C 1.7 °C 1006.7 hPa West 16.7 km/h 16.7 km/h 89% 0.0 mm -RA
13:55 3.3 °C 1.6 °C 1006.7 hPa NW 18.5 km/h 18.5 km/h 89% 0.0 mm -RA
BSWETTER.DE
Compliments of Weather Underground - 2.75 mb
Besucherstatistik
Besucher gesamt: 942.314
Besucher heute: 619
Besucher gestern: 1.289
Besucher Ø : 1.056,14
gerade online: 14
max. online: 119
Seitenaufrufe heute: 4.908
Seitenaufrufe diese Seite: 2.047
Seitenaufrufe gesamt: 3.296.012
counter Statistiken